Time;durP1;ratioP1;P1;durP2;ratioP2;P2;SDS_P1;SDS_P2;PMS_P1;PMS_P2;Temp;Humidity;BMP_temperature;BMP_pressure;BME280_temperature;BME280_humidity;BME280_pressure;Samples;Min_cycle;Max_cycle;Signal;HPM_P1;HPM_P2
2023/01/30 00:01:17;;;;;;;6.13;3.83;;;0.60;99.90;;;;;;4993562;28;20050;-74
2023/01/30 00:03:44;;;;;;;7.22;3.95;;;0.60;99.90;;;;;;4991352;28;20045;-74
2023/01/30 00:06:10;;;;;;;8.13;4.65;;;0.60;99.90;;;;;;4976638;28;20490;-74
2023/01/30 00:08:36;;;;;;;8.88;4.63;;;0.70;99.90;;;;;;4991118;28;20140;-74
2023/01/30 00:11:08;;;;;;;10.63;5.18;;;0.70;99.90;;;;;;4977661;28;20057;-74
2023/01/30 00:13:35;;;;;;;12.07;5.75;;;0.80;99.90;;;;;;4992330;28;20497;-73
2023/01/30 00:16:01;;;;;;;9.13;4.80;;;0.70;99.90;;;;;;4961761;28;20061;-73
2023/01/30 00:18:26;;;;;;;9.43;4.60;;;0.80;99.90;;;;;;4991711;28;20057;-73
2023/01/30 00:21:00;;;;;;;11.25;4.35;;;0.70;99.90;;;;;;4992355;28;20034;-73
2023/01/30 00:23:28;;;;;;;12.15;5.15;;;0.70;99.90;;;;;;4992425;28;20026;-74
2023/01/30 00:25:54;;;;;;;13.02;4.07;;;0.70;99.90;;;;;;4978819;28;20034;-73
2023/01/30 00:28:21;;;;;;;9.73;4.68;;;0.70;99.90;;;;;;4991939;28;20483;-74
2023/01/30 00:30:55;;;;;;;7.65;3.72;;;0.70;99.90;;;;;;4992896;28;20035;-73
2023/01/30 00:33:23;;;;;;;16.08;4.47;;;0.70;99.90;;;;;;4972565;28;20053;-74
2023/01/30 00:35:51;;;;;;;12.00;5.53;;;0.80;99.90;;;;;;4972313;28;20443;-74
2023/01/30 00:38:20;;;;;;;9.98;4.75;;;0.70;99.90;;;;;;4990906;28;20034;-74
2023/01/30 00:40:46;;;;;;;8.27;6.15;;;0.70;99.90;;;;;;4983359;28;20038;-73
2023/01/30 00:48:48;;;;;;;10.68;3.65;;;0.80;99.90;;;;;;4990936;28;20022;-74
2023/01/30 00:51:14;;;;;;;6.00;3.03;;;0.70;99.90;;;;;;4975265;28;20025;-73
2023/01/30 00:53:39;;;;;;;9.27;5.32;;;0.60;99.90;;;;;;4990285;28;20038;-74
2023/01/30 00:56:06;;;;;;;7.72;3.80;;;0.60;99.90;;;;;;4976380;28;20041;-74
2023/01/30 00:58:32;;;;;;;8.55;5.70;;;0.60;99.90;;;;;;4991132;28;20116;-74
2023/01/30 01:00:58;;;;;;;9.10;4.22;;;0.60;99.90;;;;;;4977651;28;20050;-74
2023/01/30 01:03:24;;;;;;;7.45;3.97;;;0.60;99.90;;;;;;4991429;28;20069;-73
2023/01/30 01:05:50;;;;;;;14.05;6.68;;;0.60;99.90;;;;;;4992615;28;20039;-73
2023/01/30 01:08:16;;;;;;;8.63;3.80;;;0.60;99.90;;;;;;4990473;28;20040;-73
2023/01/30 01:10:42;;;;;;;11.25;4.60;;;0.60;99.90;;;;;;4967568;28;20476;-73
2023/01/30 01:13:09;;;;;;;13.50;6.07;;;0.60;99.90;;;;;;4985845;28;20105;-73
2023/01/30 01:15:35;;;;;;;8.93;3.75;;;0.60;99.90;;;;;;4990485;28;20040;-74
2023/01/30 01:18:02;;;;;;;10.57;6.05;;;0.60;99.90;;;;;;4990368;28;20104;-73
2023/01/30 01:20:27;;;;;;;9.68;4.25;;;0.60;99.90;;;;;;4989770;28;20041;-74
2023/01/30 01:22:55;;;;;;;8.55;3.92;;;0.70;99.90;;;;;;4990248;28;20038;-74
2023/01/30 01:25:22;;;;;;;9.55;4.50;;;0.70;99.90;;;;;;4991247;28;20041;-74
2023/01/30 01:27:49;;;;;;;17.92;6.85;;;0.60;99.90;;;;;;4990412;28;20084;-74
2023/01/30 01:30:15;;;;;;;7.50;4.60;;;0.60;99.90;;;;;;4989696;28;20062;-74
2023/01/30 01:32:41;;;;;;;9.82;5.53;;;0.60;99.90;;;;;;4990698;28;20064;-74
2023/01/30 01:35:07;;;;;;;8.77;3.47;;;0.70;99.90;;;;;;4989565;28;20034;-74
2023/01/30 01:37:33;;;;;;;8.32;4.30;;;0.80;99.90;;;;;;4973976;28;20107;-74
2023/01/30 01:42:44;;;;;;;11.40;4.53;;;0.70;99.90;;;;;;4991668;28;20038;-74
2023/01/30 01:45:16;;;;;;;5.93;3.83;;;0.60;99.90;;;;;;4990180;28;20137;-72
2023/01/30 01:48:03;;;;;;;8.18;4.88;;;0.60;99.90;;;;;;4991079;28;20490;-72
2023/01/30 01:50:43;;;;;;;5.65;4.07;;;0.60;99.90;;;;;;4989354;28;20038;-73
2023/01/30 01:53:13;;;;;;;11.52;5.88;;;0.60;99.90;;;;;;4990348;28;20065;-73
2023/01/30 01:55:40;;;;;;;6.30;3.50;;;0.60;99.90;;;;;;4990637;28;20239;-73
2023/01/30 01:58:38;;;;;;;11.18;5.05;;;0.60;99.90;;;;;;4990762;28;20065;-73
2023/01/30 02:01:05;;;;;;;8.45;4.85;;;0.60;99.90;;;;;;4988922;28;20068;-73
2023/01/30 02:03:38;;;;;;;11.63;5.22;;;0.60;99.90;;;;;;4988660;28;20032;-73
2023/01/30 02:06:05;;;;;;;5.00;2.80;;;0.60;99.90;;;;;;4967452;28;20038;-74
2023/01/30 02:08:38;;;;;;;12.43;4.68;;;0.60;99.90;;;;;;4987668;28;20032;-73
2023/01/30 02:11:25;;;;;;;14.07;5.97;;;0.60;99.90;;;;;;4975382;28;20749;-74
2023/01/30 02:13:51;;;;;;;14.90;5.00;;;0.60;99.90;;;;;;4990179;28;20430;-74
2023/01/30 02:16:17;;;;;;;9.15;4.32;;;0.60;99.90;;;;;;4973211;28;20029;-74
2023/01/30 02:18:45;;;;;;;10.50;5.55;;;0.60;99.90;;;;;;4990861;28;20026;-73
2023/01/30 02:21:58;;;;;;;8.07;4.15;;;0.60;99.90;;;;;;4973881;28;20501;-74
2023/01/30 02:25:04;;;;;;;6.88;3.92;;;0.60;99.90;;;;;;4986945;28;20038;-73
2023/01/30 02:27:54;;;;;;;8.68;4.55;;;0.60;99.90;;;;;;4984455;28;20564;-74
2023/01/30 02:30:41;;;;;;;9.18;6.18;;;0.60;99.90;;;;;;4990396;28;20038;-74
2023/01/30 02:33:43;;;;;;;8.15;4.55;;;0.60;99.90;;;;;;4991384;28;20053;-73
2023/01/30 02:36:25;;;;;;;;;;;0.60;99.90;;;;;;4965119;28;20051;-73
2023/01/30 02:39:34;;;;;;;9.02;4.95;;;0.60;99.90;;;;;;4990191;28;19914;-73
2023/01/30 02:42:54;;;;;;;11.07;4.47;;;0.60;99.90;;;;;;4984030;28;20529;-74
2023/01/30 02:46:10;;;;;;;13.50;4.72;;;0.70;99.90;;;;;;4950460;28;20038;-74
2023/01/30 02:48:45;;;;;;;11.25;5.10;;;0.70;99.90;;;;;;4952558;28;20719;-74
2023/01/30 02:51:20;;;;;;;4.95;3.63;;;0.70;99.90;;;;;;4953511;29;20035;-73
2023/01/30 02:53:49;;;;;;;6.82;3.47;;;0.70;99.90;;;;;;4921242;29;20051;-73
2023/01/30 02:56:15;;;;;;;9.93;4.38;;;0.60;99.90;;;;;;4953122;29;20101;-73
2023/01/30 02:58:51;;;;;;;5.72;3.47;;;0.60;99.90;;;;;;4936961;29;20058;-73
2023/01/30 03:01:44;;;;;;;7.55;3.60;;;0.70;99.90;;;;;;4929919;29;20031;-73
2023/01/30 03:04:47;;;;;;;9.88;3.03;;;0.70;99.90;;;;;;4952965;28;20452;-73
2023/01/30 03:07:37;;;;;;;10.13;4.75;;;0.60;99.90;;;;;;4952775;29;20047;-74
2023/01/30 03:10:41;;;;;;;10.93;4.65;;;0.70;99.90;;;;;;4952521;28;20035;-73
2023/01/30 03:13:27;;;;;;;11.57;6.03;;;0.70;99.90;;;;;;4953425;28;20106;-74
2023/01/30 03:16:31;;;;;;;13.35;5.65;;;0.60;99.90;;;;;;4934940;29;20036;-74
2023/01/30 03:19:01;;;;;;;14.23;6.05;;;0.60;99.90;;;;;;4935065;28;20044;-74
2023/01/30 03:21:26;;;;;;;19.35;6.03;;;0.60;99.90;;;;;;4977163;28;20121;-73
2023/01/30 03:23:52;;;;;;;9.90;4.80;;;0.50;99.90;;;;;;4993236;28;20113;-73
2023/01/30 03:26:23;;;;;;;9.05;5.32;;;0.40;99.90;;;;;;4992633;28;20060;-74
2023/01/30 03:28:50;;;;;;;11.32;6.55;;;0.40;99.90;;;;;;4988656;28;20043;-74
2023/01/30 03:31:16;;;;;;;15.32;5.47;;;0.40;99.90;;;;;;4994044;28;20029;-74
2023/01/30 03:33:42;;;;;;;6.72;5.18;;;0.50;99.90;;;;;;4975615;28;20041;-73
2023/01/30 03:36:09;;;;;;;14.38;6.38;;;0.40;99.90;;;;;;4977799;28;20034;-73
2023/01/30 03:38:35;;;;;;;13.85;6.57;;;0.50;99.90;;;;;;4975441;28;20105;-73
2023/01/30 03:41:03;;;;;;;13.02;6.57;;;0.40;99.90;;;;;;4978388;28;20066;-73
2023/01/30 03:43:29;;;;;;;14.93;7.53;;;0.40;99.90;;;;;;4992899;28;20038;-74
2023/01/30 03:45:55;;;;;;;10.80;5.47;;;0.40;99.90;;;;;;4979232;28;20041;-74
2023/01/30 03:48:20;;;;;;;9.52;4.57;;;0.40;99.90;;;;;;4992530;28;20038;-74
2023/01/30 03:50:46;;;;;;;12.13;6.25;;;0.40;99.90;;;;;;4993773;28;20390;-74
2023/01/30 03:53:12;;;;;;;6.72;4.28;;;0.40;99.90;;;;;;4993347;28;20034;-74
2023/01/30 03:55:38;;;;;;;16.60;7.40;;;0.40;99.90;;;;;;4972100;28;20042;-73
2023/01/30 03:58:04;;;;;;;9.57;5.53;;;0.40;99.90;;;;;;4992934;28;20030;-74
2023/01/30 04:00:29;;;;;;;9.57;6.22;;;0.40;99.90;;;;;;4991777;28;20458;-74
2023/01/30 04:02:56;;;;;;;16.15;6.20;;;0.40;99.90;;;;;;4992186;28;20631;-74
2023/01/30 04:05:22;;;;;;;10.07;5.38;;;0.40;99.90;;;;;;4991632;28;20078;-73
2023/01/30 04:07:49;;;;;;;9.02;5.03;;;0.40;99.90;;;;;;4991642;28;20030;-73
2023/01/30 04:10:17;;;;;;;7.72;4.68;;;0.40;99.90;;;;;;4991236;28;20030;-74
2023/01/30 04:12:43;;;;;;;7.75;4.80;;;0.40;99.90;;;;;;4976136;28;20038;-73
2023/01/30 04:15:09;;;;;;;12.65;5.82;;;0.40;99.90;;;;;;4991338;28;20060;-74
2023/01/30 04:17:35;;;;;;;20.10;5.93;;;0.40;99.90;;;;;;4988220;23;20074;-72
2023/01/30 04:20:01;;;;;;;12.95;4.85;;;0.40;99.90;;;;;;4927892;28;20522;-72
2023/01/30 04:22:27;;;;;;;10.85;5.13;;;0.50;99.90;;;;;;4939199;28;20400;-72
2023/01/30 04:24:52;;;;;;;17.33;7.10;;;0.40;99.90;;;;;;4921577;28;20122;-72
2023/01/30 04:27:18;;;;;;;5.75;4.65;;;0.50;99.90;;;;;;4949207;28;20035;-72
2023/01/30 04:29:44;;;;;;;10.43;4.82;;;0.60;99.90;;;;;;4972960;28;20061;-71
2023/01/30 04:32:09;;;;;;;12.90;5.85;;;0.60;99.90;;;;;;4968055;28;20034;-72
2023/01/30 04:34:35;;;;;;;7.53;4.57;;;0.60;99.90;;;;;;4972890;28;20049;-72
2023/01/30 04:37:01;;;;;;;12.65;5.88;;;0.60;99.90;;;;;;4966340;28;20031;-71
2023/01/30 04:39:26;;;;;;;10.93;4.95;;;0.60;99.90;;;;;;4973102;28;20046;-72
2023/01/30 04:41:53;;;;;;;10.57;5.70;;;0.60;99.90;;;;;;4967394;28;20562;-71
2023/01/30 04:44:19;;;;;;;10.63;4.95;;;0.60;99.90;;;;;;4973209;28;20558;-71
2023/01/30 04:46:44;;;;;;;12.23;5.82;;;0.60;99.90;;;;;;4950179;28;20110;-70
2023/01/30 04:49:10;;;;;;;8.20;5.45;;;0.60;99.90;;;;;;4972360;28;20158;-70
2023/01/30 04:51:36;;;;;;;8.80;5.72;;;0.60;99.90;;;;;;4951904;28;20027;-70
2023/01/30 04:54:02;;;;;;;11.82;5.15;;;0.60;99.90;;;;;;4971294;28;20027;-70
2023/01/30 04:56:28;;;;;;;14.52;6.85;;;0.60;99.90;;;;;;4951461;28;20113;-71
2023/01/30 04:58:54;;;;;;;9.20;4.53;;;0.60;99.90;;;;;;4969999;28;20031;-70
2023/01/30 05:01:43;;;;;;;12.85;5.43;;;0.60;99.90;;;;;;4971513;28;20169;-70
2023/01/30 05:04:09;;;;;;;10.13;4.25;;;0.70;99.90;;;;;;4971331;28;20052;-70
2023/01/30 05:06:35;;;;;;;9.90;3.33;;;0.60;99.90;;;;;;4968423;28;20043;-70
2023/01/30 05:09:02;;;;;;;6.35;3.75;;;0.70;99.90;;;;;;4970360;28;20056;-71
2023/01/30 05:11:29;;;;;;;12.70;5.10;;;0.70;99.90;;;;;;4952487;28;20042;-70
2023/01/30 05:13:55;;;;;;;13.82;5.22;;;0.70;99.90;;;;;;4969855;28;20113;-70
2023/01/30 05:16:22;;;;;;;13.90;5.93;;;0.70;99.90;;;;;;4937198;28;20062;-70
2023/01/30 05:18:48;;;;;;;12.07;4.70;;;0.70;99.90;;;;;;4967439;28;20058;-71
2023/01/30 05:21:21;;;;;;;10.10;5.55;;;0.80;99.90;;;;;;4954481;28;20049;-70
2023/01/30 05:23:47;;;;;;;9.18;4.47;;;0.80;99.90;;;;;;4967592;28;20042;-70
2023/01/30 05:26:14;;;;;;;9.88;4.88;;;0.80;99.90;;;;;;4951704;28;20027;-71
2023/01/30 05:28:41;;;;;;;8.50;3.45;;;0.80;99.90;;;;;;4967598;28;20035;-70
2023/01/30 05:31:12;;;;;;;7.32;3.28;;;0.80;99.90;;;;;;4953510;28;20058;-70
2023/01/30 05:33:41;;;;;;;6.88;4.55;;;0.80;99.90;;;;;;4961467;28;20494;-70
2023/01/30 05:36:12;;;;;;;10.13;4.75;;;0.80;99.90;;;;;;4957487;28;20078;-70
2023/01/30 05:38:38;;;;;;;;;;;0.80;99.90;;;;;;4903725;28;20094;-70
2023/01/30 05:41:08;;;;;;;9.68;4.75;;;0.80;99.90;;;;;;4969860;28;19996;-70
2023/01/30 05:43:34;;;;;;;4.60;2.92;;;0.80;99.90;;;;;;4965591;28;20038;-70
2023/01/30 05:46:03;;;;;;;9.93;4.43;;;0.80;99.90;;;;;;4971509;28;20038;-71
2023/01/30 05:48:29;;;;;;;15.77;6.05;;;0.80;99.90;;;;;;4962317;28;20475;-69
2023/01/30 05:50:57;;;;;;;24.23;4.80;;;0.80;99.90;;;;;;4954151;28;20045;-69
2023/01/30 05:53:27;;;;;;;33.55;4.07;;;0.80;99.90;;;;;;4946012;28;20024;-72
2023/01/30 05:55:59;;;;;;;5.38;3.95;;;0.90;99.90;;;;;;4949425;28;20034;-72
2023/01/30 05:58:26;;;;;;;8.63;5.35;;;0.90;99.90;;;;;;4953790;28;20077;-71
2023/01/30 06:00:52;;;;;;;9.68;4.65;;;0.90;99.90;;;;;;4968339;28;20462;-72
2023/01/30 06:03:18;;;;;;;10.40;4.25;;;0.90;99.90;;;;;;4971901;28;20740;-73
2023/01/30 06:05:43;;;;;;;7.32;4.72;;;1.00;99.90;;;;;;4950888;28;20085;-71
2023/01/30 06:08:09;;;;;;;6.65;4.45;;;1.00;99.90;;;;;;4971408;28;20034;-71
2023/01/30 06:10:35;;;;;;;8.40;2.92;;;1.10;99.90;;;;;;4962997;28;20034;-72
2023/01/30 06:13:01;;;;;;;8.55;4.68;;;1.10;99.90;;;;;;4950077;28;20085;-72
2023/01/30 06:15:27;;;;;;;4.63;3.08;;;1.10;99.90;;;;;;4971702;28;20117;-72
2023/01/30 06:17:53;;;;;;;12.20;4.88;;;1.10;99.90;;;;;;4967097;28;20113;-72
2023/01/30 06:20:19;;;;;;;10.95;3.28;;;1.10;99.90;;;;;;4953497;28;20391;-71
2023/01/30 06:22:46;;;;;;;11.38;4.78;;;1.00;99.90;;;;;;4950720;28;20039;-71
2023/01/30 06:25:12;;;;;;;5.75;3.58;;;1.10;99.90;;;;;;4962123;28;20126;-72
2023/01/30 06:27:37;;;;;;;5.85;3.75;;;1.00;99.90;;;;;;4961990;28;20109;-72
2023/01/30 06:30:04;;;;;;;5.70;4.13;;;1.00;99.90;;;;;;4971612;28;20027;-72
2023/01/30 06:32:29;;;;;;;8.82;4.93;;;1.00;99.90;;;;;;4967772;28;20398;-71
2023/01/30 06:34:55;;;;;;;6.97;4.18;;;1.10;99.90;;;;;;4953954;28;20027;-71
2023/01/30 06:37:21;;;;;;;10.80;3.42;;;1.10;99.90;;;;;;4966559;28;20039;-71
2023/01/30 06:39:46;;;;;;;10.13;4.28;;;1.10;99.90;;;;;;4954029;28;20066;-72
2023/01/30 06:42:12;;;;;;;9.93;3.65;;;1.20;99.90;;;;;;4967757;28;20046;-76
2023/01/30 06:44:37;;;;;;;7.25;3.45;;;1.10;99.90;;;;;;4971640;28;20039;-74
2023/01/30 06:47:03;;;;;;;11.65;3.70;;;1.10;99.90;;;;;;4973255;28;20023;-72
2023/01/30 06:49:29;;;;;;;7.90;3.78;;;1.20;99.90;;;;;;4970960;28;20078;-71
2023/01/30 06:51:54;;;;;;;8.57;3.92;;;1.30;99.90;;;;;;4967705;28;20113;-74
2023/01/30 06:54:20;;;;;;;5.15;2.75;;;1.20;99.90;;;;;;4971856;28;20074;-75
2023/01/30 06:56:46;;;;;;;7.63;3.25;;;1.30;99.90;;;;;;4949961;28;20027;-71
2023/01/30 06:59:11;;;;;;;4.35;2.85;;;1.30;99.90;;;;;;4969491;28;20106;-71
2023/01/30 07:01:38;;;;;;;10.52;4.68;;;1.30;99.90;;;;;;4968522;28;20111;-72
2023/01/30 07:04:04;;;;;;;9.00;3.33;;;1.40;99.90;;;;;;4965496;28;20038;-71
2023/01/30 07:06:30;;;;;;;8.95;4.20;;;1.30;99.90;;;;;;4963646;28;20035;-60
2023/01/30 07:08:57;;;;;;;23.73;4.63;;;1.20;99.90;;;;;;4971113;28;20046;-59
2023/01/30 07:11:24;;;;;;;7.93;3.63;;;1.10;99.90;;;;;;4967218;28;20506;-69
2023/01/30 07:13:50;;;;;;;10.73;5.53;;;1.10;99.90;;;;;;4949196;28;20026;-70
2023/01/30 07:16:16;;;;;;;8.60;3.65;;;1.20;99.90;;;;;;4962575;28;20031;-70
2023/01/30 07:18:42;;;;;;;4.70;2.00;;;1.10;99.90;;;;;;4970042;28;20121;-70
2023/01/30 07:21:08;;;;;;;7.82;3.53;;;1.10;99.90;;;;;;4946384;28;20166;-70
2023/01/30 07:23:34;;;;;;;9.18;4.30;;;1.10;99.90;;;;;;4953532;28;20031;-70
2023/01/30 07:26:06;;;;;;;8.57;4.03;;;1.20;99.90;;;;;;4946316;28;20027;-70
2023/01/30 07:28:32;;;;;;;14.10;3.80;;;1.20;99.90;;;;;;4970171;28;20039;-70
2023/01/30 07:31:00;;;;;;;6.68;3.25;;;1.20;99.90;;;;;;4970522;28;20049;-70
2023/01/30 07:33:26;;;;;;;8.07;4.32;;;1.20;99.90;;;;;;4973818;28;20058;-69
2023/01/30 07:35:52;;;;;;;7.53;4.13;;;1.20;99.90;;;;;;4969791;28;20613;-70
2023/01/30 07:38:18;;;;;;;9.80;4.68;;;1.20;99.90;;;;;;4973392;28;20034;-69
2023/01/30 07:40:44;;;;;;;9.70;3.10;;;1.20;99.90;;;;;;4970195;28;20039;-70
2023/01/30 07:43:12;;;;;;;5.18;3.78;;;1.20;99.90;;;;;;4973405;28;20487;-69
2023/01/30 07:45:47;;;;;;;5.55;2.78;;;1.20;99.90;;;;;;4972381;28;20118;-70
2023/01/30 07:48:17;;;;;;;5.55;2.72;;;1.10;99.90;;;;;;4954804;28;20214;-69
2023/01/30 07:50:44;;;;;;;10.52;4.25;;;1.20;99.90;;;;;;4953106;28;20034;-69
2023/01/30 07:53:13;;;;;;;7.38;3.47;;;1.20;99.90;;;;;;4955863;28;20023;-70
2023/01/30 07:55:39;;;;;;;21.70;4.53;;;1.20;99.90;;;;;;4969823;28;20035;-68
2023/01/30 07:58:05;;;;;;;5.20;2.35;;;1.10;99.90;;;;;;4972842;28;20081;-69
2023/01/30 08:00:31;;;;;;;7.95;2.83;;;1.10;99.90;;;;;;4952385;28;20113;-69
2023/01/30 08:02:57;;;;;;;8.10;3.28;;;1.20;99.90;;;;;;4955873;28;20034;-69
2023/01/30 08:05:23;;;;;;;4.75;3.05;;;1.20;99.90;;;;;;4969814;28;20039;-69
2023/01/30 08:07:49;;;;;;;11.05;4.78;;;1.30;99.90;;;;;;4970659;28;20097;-69
2023/01/30 08:10:15;;;;;;;9.75;3.25;;;1.20;99.90;;;;;;4971720;28;20118;-69
2023/01/30 08:12:41;;;;;;;6.80;3.60;;;1.30;99.90;;;;;;4972885;28;20110;-69
2023/01/30 08:15:09;;;;;;;8.45;3.30;;;1.30;99.90;;;;;;4954208;28;20040;-69
2023/01/30 08:17:35;;;;;;;8.13;3.65;;;1.30;99.90;;;;;;4954864;28;20113;-68
2023/01/30 08:20:07;;;;;;;5.43;3.90;;;1.30;99.90;;;;;;4971617;28;20177;-69
2023/01/30 08:22:33;;;;;;;6.25;4.43;;;1.30;99.90;;;;;;4973000;28;20518;-69
2023/01/30 08:24:59;;;;;;;13.73;4.82;;;1.40;99.90;;;;;;4954250;28;20038;-69
2023/01/30 08:27:25;;;;;;;11.25;5.63;;;1.40;99.90;;;;;;4972404;28;20031;-69
2023/01/30 08:29:50;;;;;;;10.10;3.63;;;1.30;99.90;;;;;;4966052;28;20035;-69
2023/01/30 08:32:16;;;;;;;13.15;4.15;;;1.30;99.90;;;;;;4972961;28;20387;-69
2023/01/30 08:34:42;;;;;;;9.40;3.90;;;1.40;99.90;;;;;;4969174;28;20033;-69
2023/01/30 08:37:07;;;;;;;6.18;3.75;;;1.40;99.90;;;;;;4971251;28;20034;-66
2023/01/30 08:39:33;;;;;;;8.30;4.45;;;1.40;99.90;;;;;;4971043;28;20047;-71
2023/01/30 08:41:59;;;;;;;6.50;4.50;;;1.40;99.90;;;;;;4969805;28;20501;-69
2023/01/30 08:44:24;;;;;;;8.70;3.78;;;1.40;99.90;;;;;;4971937;28;20097;-68
2023/01/30 08:46:50;;;;;;;10.90;4.15;;;1.40;99.90;;;;;;4966215;28;20034;-68
2023/01/30 08:49:16;;;;;;;6.50;3.45;;;1.40;99.90;;;;;;4972623;28;20046;-68
2023/01/30 08:51:41;;;;;;;9.98;4.72;;;1.50;99.90;;;;;;4944331;28;20521;-69
2023/01/30 08:54:07;;;;;;;9.95;5.63;;;1.50;99.90;;;;;;4972997;28;20494;-69
2023/01/30 08:56:33;;;;;;;6.40;3.67;;;1.60;99.90;;;;;;4970744;28;20554;-68
2023/01/30 08:58:59;;;;;;;6.50;3.80;;;1.60;99.90;;;;;;4972234;28;20105;-68
2023/01/30 09:01:25;;;;;;;5.38;3.22;;;1.60;99.90;;;;;;4970388;28;20106;-64
2023/01/30 09:03:51;;;;;;;11.25;3.00;;;1.70;99.90;;;;;;4965594;28;20062;-69
2023/01/30 09:06:17;;;;;;;12.57;3.83;;;1.80;99.90;;;;;;4965742;28;20505;-68
2023/01/30 09:08:42;;;;;;;7.00;3.67;;;1.80;99.90;;;;;;4972127;28;20042;-70
2023/01/30 09:11:11;;;;;;;5.60;3.10;;;1.90;99.90;;;;;;4964810;28;20046;-68
2023/01/30 09:13:42;;;;;;;8.45;3.47;;;1.90;99.90;;;;;;4972264;28;20023;-68
2023/01/30 09:16:09;;;;;;;8.82;3.85;;;1.90;99.90;;;;;;4954987;28;20114;-68
2023/01/30 09:18:46;;;;;;;11.52;6.53;;;1.90;99.90;;;;;;4971333;28;20751;-68
2023/01/30 09:21:12;;;;;;;8.15;4.22;;;1.90;99.90;;;;;;4954897;28;20494;-67
2023/01/30 09:23:38;;;;;;;26.52;7.40;;;2.00;99.90;;;;;;4959740;28;20031;-69
2023/01/30 09:26:04;;;;;;;5.60;2.95;;;2.00;99.90;;;;;;4953961;28;20121;-73
2023/01/30 09:28:31;;;;;;;9.18;4.57;;;1.90;99.90;;;;;;4971266;28;20054;-72
2023/01/30 09:30:58;;;;;;;7.72;3.55;;;1.90;99.90;;;;;;4937852;28;20038;-69
2023/01/30 09:33:24;;;;;;;8.57;3.78;;;2.00;99.90;;;;;;4957517;28;20435;-67
2023/01/30 09:35:50;;;;;;;6.50;4.15;;;2.00;99.90;;;;;;4960894;28;20032;-70
2023/01/30 09:38:17;;;;;;;8.18;3.00;;;2.00;99.90;;;;;;4962293;28;20682;-70
2023/01/30 09:40:59;;;;;;;14.20;4.40;;;2.00;99.90;;;;;;4971743;28;20118;-68
2023/01/30 09:44:05;;;;;;;5.57;2.80;;;2.10;99.90;;;;;;4965049;28;20541;-68
2023/01/30 09:47:03;;;;;;;7.72;3.05;;;2.10;99.90;;;;;;4935649;28;20496;-68
2023/01/30 09:50:23;;;;;;;37.53;8.18;;;2.20;99.90;;;;;;4970217;28;20033;-67
2023/01/30 09:52:57;;;;;;;10.73;6.75;;;2.30;99.90;;;;;;4905119;28;20050;-68
2023/01/30 09:55:26;;;;;;;8.02;4.28;;;2.30;99.90;;;;;;4970975;28;20035;-68
2023/01/30 09:57:52;;;;;;;12.93;4.15;;;2.30;99.90;;;;;;4962264;28;20066;-68
2023/01/30 10:00:27;;;;;;;8.23;4.03;;;2.40;99.90;;;;;;4971470;28;20054;-68
2023/01/30 10:03:08;;;;;;;7.22;2.35;;;2.40;99.90;;;;;;4963855;28;20129;-67
2023/01/30 10:05:55;;;;;;;2.40;1.90;;;2.60;99.90;;;;;;4955251;28;20042;-68
2023/01/30 10:08:48;;;;;;;4.68;2.60;;;2.70;99.90;;;;;;4954046;28;20038;-69
2023/01/30 10:11:32;;;;;;;3.03;2.05;;;3.00;99.90;;;;;;4968570;28;20042;-68
2023/01/30 10:14:23;;;;;;;4.32;2.05;;;3.30;99.90;;;;;;4967785;28;20117;-68
2023/01/30 10:17:05;;;;;;;2.78;1.70;;;3.30;99.90;;;;;;4961743;23;20054;-76
2023/01/30 10:19:51;;;;;;;10.07;3.65;;;3.40;99.90;;;;;;5009430;28;20050;-77
2023/01/30 10:23:02;;;;;;;7.28;2.45;;;3.60;99.90;;;;;;5010002;28;20579;-77
2023/01/30 10:25:45;;;;;;;3.55;1.80;;;3.60;99.90;;;;;;4988758;28;20494;-78
2023/01/30 10:28:23;;;;;;;6.72;2.70;;;3.70;99.90;;;;;;4996579;28;20050;-78
2023/01/30 10:30:54;;;;;;;4.38;2.00;;;3.70;99.90;;;;;;4973775;28;20030;-78
2023/01/30 10:33:32;;;;;;;4.10;2.58;;;3.60;99.90;;;;;;4973233;28;20034;-77
2023/01/30 10:36:29;;;;;;;2.25;1.25;;;3.80;99.90;;;;;;4973501;28;20065;-77
2023/01/30 10:38:59;;;;;;;4.22;2.42;;;3.80;99.90;;;;;;4954785;28;20129;-79
2023/01/30 10:41:44;;;;;;;4.03;1.45;;;3.80;99.90;;;;;;4973848;28;20038;-79
2023/01/30 10:44:12;;;;;;;5.35;1.65;;;3.90;99.90;;;;;;4974089;28;20038;-76
2023/01/30 10:47:19;;;;;;;2.47;1.65;;;3.90;99.90;;;;;;4983891;28;20026;-75
2023/01/30 10:49:56;;;;;;;3.83;2.00;;;3.90;99.90;;;;;;4969503;28;20653;-77
2023/01/30 10:52:41;;;;;;;3.20;1.92;;;3.90;99.90;;;;;;4966080;28;20038;-77
2023/01/30 10:55:28;;;;;;;5.65;1.95;;;3.90;99.90;;;;;;4973431;28;20039;-76
2023/01/30 10:58:13;;;;;;;6.63;2.22;;;4.00;99.90;;;;;;4988958;28;20110;-75
2023/01/30 11:00:58;;;;;;;2.83;1.70;;;3.80;99.90;;;;;;4974651;28;20072;-75
2023/01/30 11:04:01;;;;;;;4.05;1.95;;;3.90;99.90;;;;;;4989208;28;20068;-77
2023/01/30 11:06:26;;;;;;;2.67;1.48;;;3.80;99.90;;;;;;4976737;28;20399;-76
2023/01/30 11:08:54;;;;;;;3.90;2.38;;;3.90;99.90;;;;;;4993241;28;20478;-76
2023/01/30 11:11:53;;;;;;;11.95;2.03;;;3.80;99.90;;;;;;4994446;28;20549;-77
2023/01/30 11:14:19;;;;;;;5.47;1.92;;;4.00;99.90;;;;;;4968361;28;20038;-76
2023/01/30 11:16:55;;;;;;;6.20;1.98;;;4.00;99.90;;;;;;4993031;28;20033;-71
2023/01/30 11:19:32;;;;;;;21.52;2.25;;;4.10;99.90;;;;;;4976273;28;20105;-73
2023/01/30 11:22:03;;;;;;;5.75;2.10;;;4.00;99.90;;;;;;4975620;28;20521;-74
2023/01/30 11:24:59;;;;;;;6.40;2.08;;;4.00;99.90;;;;;;4994135;28;20409;-74
2023/01/30 11:27:28;;;;;;;3.58;2.10;;;4.00;99.90;;;;;;4975659;28;20077;-75
2023/01/30 11:30:16;;;;;;;2.33;0.90;;;4.10;99.90;;;;;;4993973;28;20042;-76
2023/01/30 11:32:45;;;;;;;2.70;1.35;;;4.20;99.90;;;;;;4993260;28;20038;-87
2023/01/30 11:35:13;;;;;;;3.13;1.67;;;4.10;99.90;;;;;;4995588;28;20033;-85
2023/01/30 11:37:43;;;;;;;5.45;2.08;;;4.00;99.90;;;;;;4987080;28;20031;-85
2023/01/30 11:40:20;;;;;;;4.40;2.67;;;3.90;99.90;;;;;;4977065;28;20111;-87
2023/01/30 11:42:58;;;;;;;3.67;1.92;;;4.00;99.90;;;;;;4975635;28;20039;-81
2023/01/30 11:45:25;;;;;;;3.72;1.83;;;4.00;99.90;;;;;;4987004;28;20034;-81
2023/01/30 11:48:00;;;;;;;2.72;1.83;;;4.00;99.90;;;;;;4991722;28;20026;-76
2023/01/30 11:50:41;;;;;;;1.83;1.20;;;3.90;99.90;;;;;;4976277;28;20104;-83
2023/01/30 11:53:45;;;;;;;5.38;2.60;;;3.90;99.90;;;;;;4976934;28;20122;-71
2023/01/30 11:56:55;;;;;;;4.25;2.47;;;3.80;99.90;;;;;;4964186;28;20447;-85
2023/01/30 11:59:28;;;;;;;3.58;2.53;;;3.70;99.90;;;;;;4948283;28;20039;-87
2023/01/30 12:02:23;;;;;;;2.65;1.60;;;3.80;99.90;;;;;;4976843;28;20058;-86
2023/01/30 12:05:03;;;;;;;4.80;2.65;;;3.90;99.90;;;;;;4996227;28;20038;-89
2023/01/30 12:07:32;;;;;;;5.22;2.42;;;3.90;99.90;;;;;;4993975;28;20029;-86
2023/01/30 12:09:59;;;;;;;7.57;2.53;;;4.00;99.90;;;;;;4995756;28;20041;-90
2023/01/30 12:12:44;;;;;;;3.42;1.90;;;4.10;99.90;;;;;;4976566;28;20464;-88
2023/01/30 12:15:31;;;;;;;5.70;2.67;;;4.30;99.90;;;;;;4960567;28;20062;-86
2023/01/30 12:18:31;;;;;;;15.40;3.17;;;4.30;99.90;;;;;;4967973;28;20038;-91
2023/01/30 12:21:35;;;;;;;4.50;2.45;;;4.30;99.90;;;;;;4978575;28;20080;-83
2023/01/30 12:24:26;;;;;;;6.28;1.98;;;4.30;99.90;;;;;;4995175;28;20035;-86
2023/01/30 12:27:10;;;;;;;4.27;2.20;;;4.30;99.90;;;;;;4977948;28;20030;-86
2023/01/30 12:29:50;;;;;;;5.18;2.25;;;4.30;99.90;;;;;;4979381;28;20285;-84
2023/01/30 12:32:25;;;;;;;5.20;2.50;;;4.30;99.90;;;;;;4977758;28;20117;-87
2023/01/30 12:34:50;;;;;;;9.32;3.60;;;4.00;99.90;;;;;;4977011;28;20105;-86
2023/01/30 12:37:55;;;;;;;4.15;1.95;;;4.00;99.90;;;;;;4971195;28;20133;-84
2023/01/30 12:40:54;;;;;;;4.40;1.85;;;4.00;99.90;;;;;;4987105;28;20034;-86
2023/01/30 12:43:59;;;;;;;4.13;2.80;;;4.10;99.90;;;;;;4993161;28;20547;-83
2023/01/30 12:46:51;;;;;;;4.82;1.95;;;4.40;99.90;;;;;;4978590;28;20566;-82
2023/01/30 12:49:31;;;;;;;2.78;1.55;;;4.60;99.90;;;;;;4990780;28;20483;-87
2023/01/30 12:52:36;;;;;;;2.08;1.23;;;4.90;99.90;;;;;;4993575;28;20457;-83
2023/01/30 12:55:45;;;;;;;3.58;1.85;;;5.10;99.90;;;;;;4993217;28;20093;-83
2023/01/30 12:58:42;;;;;;;3.40;1.95;;;5.10;99.90;;;;;;4991771;28;20033;-86
2023/01/30 13:01:34;;;;;;;4.38;1.35;;;5.10;99.90;;;;;;4967498;28;20058;-86
2023/01/30 13:04:44;;;;;;;;;;;5.20;99.90;;;;;;4978224;28;20112;-90
2023/01/30 13:07:21;;;;;;;5.35;1.73;;;5.20;99.90;;;;;;4977603;28;19956;-88
2023/01/30 13:09:56;;;;;;;3.25;1.55;;;5.20;99.90;;;;;;4994057;28;20070;-87
2023/01/30 13:12:53;;;;;;;2.63;1.38;;;5.20;99.90;;;;;;4955194;28;20049;-84
2023/01/30 13:15:54;;;;;;;1.98;1.58;;;5.20;99.90;;;;;;4975436;28;20699;-85
2023/01/30 13:19:08;;;;;;;1.63;1.48;;;5.20;99.90;;;;;;4978489;28;20037;-87
2023/01/30 13:21:50;;;;;;;2.63;1.40;;;5.20;99.90;;;;;;4992232;28;20046;-89
2023/01/30 13:24:24;;;;;;;5.20;1.92;;;5.20;99.90;;;;;;4961036;28;20120;-74
2023/01/30 13:26:52;;;;;;;3.67;2.10;;;5.20;99.90;;;;;;4975073;28;20057;-82
2023/01/30 13:29:34;;;;;;;4.78;1.77;;;5.30;99.90;;;;;;4986010;28;20034;-89
2023/01/30 13:32:05;;;;;;;3.63;2.10;;;5.20;99.90;;;;;;4974840;28;20105;-78
2023/01/30 13:34:46;;;;;;;4.80;2.38;;;5.20;99.90;;;;;;4974488;28;20070;-78
2023/01/30 13:37:19;;;;;;;3.47;1.90;;;5.30;99.90;;;;;;4972902;28;20054;-78